createdAt,value
2018-08-10T00:01:28.479Z,100843.25
2018-08-10T00:03:57.075Z,100852.09
2018-08-10T00:06:25.763Z,100860.80
2018-08-10T00:08:55.346Z,100862.06
2018-08-10T00:11:23.920Z,100874.40
2018-08-10T00:13:52.479Z,100878.16
2018-08-10T00:16:23.204Z,100869.63
2018-08-10T00:18:51.829Z,100878.09
2018-08-10T00:21:25.823Z,100889.40
2018-08-10T00:23:54.819Z,100899.04
2018-08-10T00:26:23.388Z,100898.14
2018-08-10T00:28:52.000Z,100904.79
2018-08-10T00:31:21.008Z,100912.61
2018-08-10T00:33:49.524Z,100916.10
2018-08-10T00:36:18.112Z,100914.77
2018-08-10T00:38:47.099Z,100910.05
2018-08-10T00:41:15.718Z,100911.59
2018-08-10T00:43:44.304Z,100919.52
2018-08-10T00:46:20.011Z,100921.63
2018-08-10T00:48:48.544Z,100927.68
2018-08-10T00:51:20.311Z,100937.75
2018-08-10T00:53:49.347Z,100934.14
2018-08-10T00:56:18.187Z,100944.10
2018-08-10T00:58:46.777Z,100945.55
2018-08-10T01:01:15.709Z,100947.47
2018-08-10T01:03:48.648Z,100949.39
2018-08-10T01:06:22.026Z,100958.86
2018-08-10T01:08:51.481Z,100971.20
2018-08-10T01:11:20.111Z,100965.52
2018-08-10T01:13:51.603Z,100973.77
2018-08-10T01:16:20.597Z,100989.75
2018-08-10T01:18:49.174Z,100991.81
2018-08-10T01:21:24.725Z,100997.48
2018-08-10T01:23:54.057Z,100995.92
2018-08-10T01:26:22.586Z,101004.54
2018-08-10T01:28:51.250Z,101014.90
2018-08-10T01:31:20.620Z,101009.14
2018-08-10T01:33:53.218Z,101017.61
2018-08-10T01:36:21.801Z,101012.02
2018-08-10T01:38:50.807Z,101015.16
2018-08-10T01:41:19.337Z,101027.98
2018-08-10T01:43:47.887Z,101037.30
2018-08-10T01:46:16.971Z,101039.01
2018-08-10T01:48:45.515Z,101039.59
2018-08-10T01:51:14.089Z,101045.64
2018-08-10T01:53:43.165Z,101044.88
2018-08-10T01:56:11.729Z,101046.47
2018-08-10T01:58:42.173Z,101045.00
2018-08-10T02:01:11.168Z,101046.21
2018-08-10T02:03:39.736Z,101051.36
2018-08-10T02:06:08.343Z,101050.59
2018-08-10T02:08:37.288Z,101055.30
2018-08-10T02:11:05.852Z,101053.53
2018-08-10T02:13:34.403Z,101056.27
2018-08-10T02:16:04.184Z,101055.78
2018-08-10T02:18:33.583Z,101062.44
2018-08-10T02:21:02.413Z,101062.70
2018-08-10T02:23:31.592Z,101063.91
2018-08-10T02:26:00.414Z,101070.89
2018-08-10T02:28:28.972Z,101065.14
2018-08-10T02:30:58.032Z,101068.58
2018-08-10T02:33:26.620Z,101071.34
2018-08-10T02:35:55.207Z,101082.02
2018-08-10T02:38:27.914Z,101072.00
2018-08-10T02:40:56.474Z,101077.70
2018-08-10T02:43:25.071Z,101077.25
2018-08-10T02:45:54.083Z,101083.02
2018-08-10T02:48:22.693Z,101087.15
2018-08-10T02:50:51.313Z,101092.06
2018-08-10T02:53:20.376Z,101104.92
2018-08-10T02:55:49.258Z,101102.02
2018-08-10T02:58:17.869Z,101116.77
2018-08-10T03:00:52.835Z,101114.43
2018-08-10T03:03:21.482Z,101115.46
2018-08-10T03:05:50.675Z,101118.68
2018-08-10T03:08:19.417Z,101123.53
2018-08-10T03:10:48.048Z,101121.78
2018-08-10T03:13:16.993Z,101127.87
2018-08-10T03:15:45.568Z,101129.81
2018-08-10T03:18:20.417Z,101133.09
2018-08-10T03:20:48.991Z,101140.49
2018-08-10T03:23:18.539Z,101145.50
2018-08-10T03:25:47.571Z,101143.27
2018-08-10T03:28:16.570Z,101141.35
2018-08-10T03:30:45.273Z,101147.05
2018-08-10T03:33:14.355Z,101154.33
2018-08-10T03:35:42.900Z,101149.95
2018-08-10T03:38:15.974Z,101153.61
2018-08-10T03:40:44.922Z,101156.39
2018-08-10T03:43:13.537Z,101169.57
2018-08-10T03:45:42.442Z,101170.00
2018-08-10T03:48:11.369Z,101178.75
2018-08-10T03:50:39.935Z,101175.59
2018-08-10T03:53:08.573Z,101179.73
2018-08-10T03:55:37.620Z,101179.11
2018-08-10T03:58:06.570Z,101184.96
2018-08-10T04:00:38.551Z,101187.50
2018-08-10T04:03:08.619Z,101188.55
2018-08-10T04:05:39.036Z,101193.19
2018-08-10T04:08:07.579Z,101191.47
2018-08-10T04:10:36.523Z,101198.83
2018-08-10T04:13:05.152Z,101204.50
2018-08-10T04:15:33.758Z,101213.92
2018-08-10T04:18:04.611Z,101200.77
2018-08-10T04:20:34.493Z,101216.58
2018-08-10T04:23:03.314Z,101214.45
2018-08-10T04:25:35.968Z,101216.48
2018-08-10T04:28:05.423Z,101223.81
2018-08-10T04:30:34.097Z,101217.06
2018-08-10T04:33:03.195Z,101222.20
2018-08-10T04:35:37.476Z,101227.69
2018-08-10T04:38:06.352Z,101228.96
2018-08-10T04:40:36.364Z,101231.55
2018-08-10T04:43:05.038Z,101229.74
2018-08-10T04:45:39.267Z,101233.03
2018-08-10T04:48:08.355Z,101241.92
2018-08-10T04:50:37.056Z,101244.11
2018-08-10T04:53:05.629Z,101249.20
2018-08-10T04:55:34.804Z,101246.08
2018-08-10T04:58:06.656Z,101251.53
2018-08-10T05:00:35.375Z,101253.97
2018-08-10T05:03:06.011Z,101257.48
2018-08-10T05:05:35.214Z,101257.67
2018-08-10T05:08:07.628Z,101259.73
2018-08-10T05:10:36.635Z,101256.17
2018-08-10T05:13:05.327Z,101267.65
2018-08-10T05:15:34.012Z,101272.42
2018-08-10T05:18:04.341Z,101278.08
2018-08-10T05:20:33.266Z,101274.75
2018-08-10T05:23:02.128Z,101279.23
2018-08-10T05:25:34.531Z,101279.28
2018-08-10T05:30:38.286Z,101286.66
2018-08-10T05:33:07.405Z,101284.34
2018-08-10T05:35:36.141Z,101294.99
2018-08-10T05:38:05.541Z,101296.37
2018-08-10T05:40:34.629Z,101299.84
2018-08-10T05:43:03.617Z,101309.13
2018-08-10T05:45:32.259Z,101307.95
2018-08-10T05:48:05.844Z,101311.87
2018-08-10T05:50:34.665Z,101312.76
2018-08-10T05:53:03.413Z,101312.98
2018-08-10T05:55:33.457Z,101326.05
2018-08-10T05:58:02.960Z,101323.71
2018-08-10T06:00:31.602Z,101322.55
2018-08-10T06:03:07.120Z,101319.75
2018-08-10T06:05:35.730Z,101318.14
2018-08-10T06:08:05.076Z,101318.37
2018-08-10T06:10:35.235Z,101320.60
2018-08-10T06:13:04.263Z,101323.53
2018-08-10T06:15:33.070Z,101321.94
2018-08-10T06:18:03.264Z,101324.86
2018-08-10T06:20:31.924Z,101322.48
2018-08-10T06:23:00.652Z,101325.53
2018-08-10T06:25:34.410Z,101325.92
2018-08-10T06:28:04.796Z,101333.43
2018-08-10T06:30:33.519Z,101332.61
2018-08-10T06:33:02.662Z,101330.38
2018-08-10T06:35:31.238Z,101337.39
2018-08-10T06:38:03.408Z,101331.66
2018-08-10T06:40:32.300Z,101335.94
2018-08-10T06:43:11.785Z,101330.72
2018-08-10T06:45:40.876Z,101334.00
2018-08-10T06:48:09.512Z,101336.42
2018-08-10T06:50:38.099Z,101339.03
2018-08-10T06:53:07.217Z,101330.92
2018-08-10T06:55:35.884Z,101334.98
2018-08-10T06:58:06.601Z,101343.95
2018-08-10T07:00:35.724Z,101338.03
2018-08-10T07:03:04.457Z,101351.01
2018-08-10T07:05:33.059Z,101341.16
2018-08-10T07:08:03.166Z,101339.78
2018-08-10T07:10:31.722Z,101346.83
2018-08-10T07:13:00.395Z,101346.36
2018-08-10T07:15:29.399Z,101354.84
2018-08-10T07:17:58.052Z,101342.58
2018-08-10T07:20:26.659Z,101348.75
2018-08-10T07:22:55.715Z,101350.73
2018-08-10T07:25:24.321Z,101358.88
2018-08-10T07:27:52.931Z,101357.62
2018-08-10T07:30:25.096Z,101344.73
2018-08-10T07:32:53.878Z,101351.48
2018-08-10T07:35:27.349Z,101356.01
2018-08-10T07:37:56.483Z,101355.77
2018-08-10T07:40:25.345Z,101356.98
2018-08-10T07:42:54.120Z,101362.16
2018-08-10T07:45:23.627Z,101366.14
2018-08-10T07:47:53.480Z,101368.20
2018-08-10T07:50:22.436Z,101362.80
2018-08-10T07:52:51.794Z,101358.70
2018-08-10T07:55:20.629Z,101354.05
2018-08-10T07:57:50.032Z,101358.09
2018-08-10T08:00:22.226Z,101359.28
2018-08-10T08:02:50.813Z,101356.88
2018-08-10T08:05:19.627Z,101354.50
2018-08-10T08:07:48.696Z,101355.09
2018-08-10T08:10:17.579Z,101356.77
2018-08-10T08:12:46.399Z,101365.67
2018-08-10T08:15:20.646Z,101354.16
2018-08-10T08:17:49.391Z,101362.01
2018-08-10T08:20:18.392Z,101374.12
2018-08-10T08:22:48.457Z,101372.82
2018-08-10T08:25:17.029Z,101372.63
2018-08-10T08:27:45.618Z,101370.55
2018-08-10T08:30:14.865Z,101370.82
2018-08-10T08:32:43.512Z,101380.53
2018-08-10T08:35:12.262Z,101382.73
2018-08-10T08:37:41.303Z,101372.73
2018-08-10T08:40:19.312Z,101379.61
2018-08-10T08:42:48.992Z,101375.11
2018-08-10T08:46:20.553Z,101373.75
2018-08-10T08:51:26.616Z,101367.39
2018-08-10T08:55:05.302Z,101373.87
2018-08-10T08:57:37.020Z,101366.99
2018-08-10T09:00:12.519Z,101368.30
2018-08-10T09:02:41.266Z,101372.66
2018-08-10T09:05:10.408Z,101374.73
2018-08-10T09:07:39.763Z,101363.70
2018-08-10T09:10:10.714Z,101361.30
2018-08-10T09:12:39.219Z,101365.18
2018-08-10T09:15:13.237Z,101371.45
2018-08-10T09:17:47.708Z,101371.12
2018-08-10T09:20:24.193Z,101360.67
2018-08-10T09:22:52.885Z,101367.22
2018-08-10T09:25:21.491Z,101367.47
2018-08-10T09:27:50.372Z,101359.97
2018-08-10T09:30:19.480Z,101362.65
2018-08-10T09:32:48.081Z,101360.06
2018-08-10T09:35:16.983Z,101358.56
2018-08-10T09:37:45.623Z,101365.65
2018-08-10T09:40:19.937Z,101360.30
2018-08-10T09:42:49.072Z,101359.61
2018-08-10T09:45:18.300Z,101357.79
2018-08-10T09:47:48.156Z,101354.68
2018-08-10T09:50:17.996Z,101353.30
2018-08-10T09:53:03.641Z,101354.30
2018-08-10T09:55:34.829Z,101359.52
2018-08-10T09:58:07.789Z,101351.38
2018-08-10T10:00:44.145Z,101346.66
2018-08-10T10:03:20.519Z,101339.99
2018-08-10T10:05:51.038Z,101342.20
2018-08-10T10:08:43.733Z,101344.09
2018-08-10T10:11:14.132Z,101349.72
2018-08-10T10:13:43.177Z,101355.00
2018-08-10T10:16:12.621Z,101349.59
2018-08-10T10:18:48.574Z,101351.27
2018-08-10T10:21:17.829Z,101346.00
2018-08-10T10:23:46.470Z,101348.95
2018-08-10T10:26:15.064Z,101350.72
2018-08-10T10:28:43.726Z,101345.70
2018-08-10T10:31:19.420Z,101346.77
2018-08-10T10:33:48.111Z,101345.02
2018-08-10T10:36:16.967Z,101335.74
2018-08-10T10:38:45.610Z,101340.30
2018-08-10T10:41:14.822Z,101350.96
2018-08-10T10:43:49.477Z,101338.69
2018-08-10T10:46:18.762Z,101342.07
2018-08-10T10:48:47.323Z,101335.24
2018-08-10T10:51:17.407Z,101327.79
2018-08-10T10:53:46.843Z,101330.30
2018-08-10T10:56:15.576Z,101334.57
2018-08-10T10:58:44.788Z,101320.88
2018-08-10T11:01:25.213Z,101322.84
2018-08-10T11:03:54.234Z,101321.31
2018-08-10T11:06:23.032Z,101318.46
2018-08-10T11:08:53.325Z,101321.69
2018-08-10T11:11:22.320Z,101317.41
2018-08-10T11:13:50.871Z,101310.99
2018-08-10T11:16:19.643Z,101317.12
2018-08-10T11:24:28.487Z,101302.25
2018-08-10T11:29:30.604Z,101301.03
2018-08-10T11:32:01.566Z,101298.53
2018-08-10T11:34:30.212Z,101299.17
2018-08-10T11:37:00.761Z,101293.61
2018-08-10T11:39:29.819Z,101293.04
2018-08-10T11:42:12.706Z,101287.69
2018-08-10T11:44:41.381Z,101281.64
2018-08-10T11:47:10.450Z,101284.66
2018-08-10T11:49:39.097Z,101281.67
2018-08-10T11:52:07.851Z,101274.89
2018-08-10T11:54:41.006Z,101277.95
2018-08-10T11:57:09.635Z,101270.52
2018-08-10T11:59:38.244Z,101266.62
2018-08-10T12:02:07.640Z,101253.62
2018-08-10T12:04:36.228Z,101258.06
2018-08-10T12:07:05.025Z,101262.41
2018-08-10T12:09:34.004Z,101266.84
2018-08-10T12:14:43.671Z,101264.55
2018-08-10T12:17:23.403Z,101248.43
2018-08-10T12:19:51.973Z,101257.22
2018-08-10T12:22:23.592Z,101251.63
2018-08-10T12:24:52.605Z,101239.72
2018-08-10T12:27:21.202Z,101248.42
2018-08-10T12:29:49.781Z,101241.06
2018-08-10T12:32:18.909Z,101236.91
2018-08-10T12:34:47.512Z,101230.48
2018-08-10T12:37:16.271Z,101228.78
2018-08-10T12:39:45.175Z,101220.91
2018-08-10T12:42:13.816Z,101225.20
2018-08-10T12:44:51.443Z,101210.27
2018-08-10T12:47:20.060Z,101220.07
2018-08-10T12:49:48.745Z,101225.69
2018-08-10T12:52:17.935Z,101229.95
2018-08-10T12:54:47.506Z,101212.70
2018-08-10T12:57:16.095Z,101215.18
2018-08-10T12:59:44.736Z,101204.13
2018-08-10T13:02:13.490Z,101215.64
2018-08-10T13:04:42.392Z,101215.59
2018-08-10T13:09:50.636Z,101213.15
2018-08-10T13:12:22.768Z,101215.25
2018-08-10T13:14:51.484Z,101215.59
2018-08-10T13:17:20.251Z,101210.50
2018-08-10T13:19:51.155Z,101205.30
2018-08-10T13:22:19.973Z,101204.84
2018-08-10T13:24:55.289Z,101200.90
2018-08-10T13:27:24.260Z,101200.98
2018-08-10T13:29:52.892Z,101193.20
2018-08-10T13:32:21.802Z,101188.78
2018-08-10T13:34:50.904Z,101181.48
2018-08-10T13:37:19.511Z,101178.14
2018-08-10T13:39:48.215Z,101181.29
2018-08-10T13:42:17.599Z,101175.18
2018-08-10T13:47:28.179Z,101176.59
2018-08-10T13:50:00.200Z,101178.28
2018-08-10T13:52:28.843Z,101161.55
2018-08-10T13:54:57.981Z,101159.68
2018-08-10T13:57:27.398Z,101163.85
2018-08-10T13:59:56.475Z,101164.42
2018-08-10T14:05:08.584Z,101163.08
2018-08-10T14:07:38.035Z,101155.92
2018-08-10T14:10:08.999Z,101159.52
2018-08-10T14:13:16.095Z,101154.67
2018-08-10T14:15:47.677Z,101163.02
2018-08-10T14:18:16.912Z,101163.94
2018-08-10T14:20:45.677Z,101161.82
2018-08-10T14:23:15.286Z,101150.75
2018-08-10T14:25:43.901Z,101152.37
2018-08-10T14:28:12.562Z,101151.89
2018-08-10T14:30:41.263Z,101142.33
2018-08-10T14:33:10.375Z,101139.88
2018-08-10T14:35:39.132Z,101140.92
2018-08-10T14:38:07.814Z,101123.33
2018-08-10T14:40:37.840Z,101140.16
2018-08-10T14:43:06.777Z,101140.66
2018-08-10T14:45:35.482Z,101135.19
2018-08-10T14:48:05.826Z,101121.08
2018-08-10T14:50:34.511Z,101135.47
2018-08-10T14:53:07.417Z,101121.67
2018-08-10T14:55:36.076Z,101118.44
2018-08-10T14:58:05.782Z,101111.58
2018-08-10T15:00:34.870Z,101114.87
2018-08-10T15:03:03.603Z,101132.95
2018-08-10T15:05:32.237Z,101140.93
2018-08-10T15:08:01.497Z,101129.53
2018-08-10T15:10:36.568Z,101133.05
2018-08-10T15:13:05.591Z,101132.12
2018-08-10T15:15:34.279Z,101123.38
2018-08-10T15:18:03.984Z,101121.04
2018-08-10T15:20:33.603Z,101111.48
2018-08-10T15:23:08.707Z,101111.50
2018-08-10T15:25:37.739Z,101122.33
2018-08-10T15:28:08.536Z,101122.76
2018-08-10T15:30:37.634Z,101117.11
2018-08-10T15:33:11.774Z,101122.02
2018-08-10T15:35:41.160Z,101107.88
2018-08-10T15:38:19.176Z,101100.64
2018-08-10T15:40:48.338Z,101103.70
2018-08-10T15:43:20.746Z,101095.02
2018-08-10T15:45:50.150Z,101097.50
2018-08-10T15:48:19.667Z,101088.44
2018-08-10T15:50:49.314Z,101093.11
2018-08-10T15:53:18.315Z,101086.08
2018-08-10T15:55:48.840Z,101084.21
2018-08-10T15:58:18.770Z,101090.18
2018-08-10T16:00:48.036Z,101084.61
2018-08-10T16:03:21.897Z,101079.09
2018-08-10T16:05:51.649Z,101081.91
2018-08-10T16:08:25.943Z,101083.13
2018-08-10T16:10:55.831Z,101073.86
2018-08-10T16:13:24.893Z,101079.27
2018-08-10T16:15:54.417Z,101080.05
2018-08-10T16:18:24.283Z,101072.30
2018-08-10T16:20:54.556Z,101075.38
2018-08-10T16:23:24.123Z,101071.53
2018-08-10T16:25:58.750Z,101071.81
2018-08-10T16:28:27.534Z,101070.84
2018-08-10T16:30:57.042Z,101068.47
2018-08-10T16:33:29.269Z,101072.73
2018-08-10T16:35:58.566Z,101068.67
2018-08-10T16:38:27.856Z,101065.28
2018-08-10T16:40:57.275Z,101064.55
2018-08-10T16:43:27.545Z,101056.97
2018-08-10T16:45:56.535Z,101054.67
2018-08-10T16:48:25.994Z,101061.66
2018-08-10T16:50:59.262Z,101052.33
2018-08-10T16:53:28.381Z,101052.09
2018-08-10T16:55:58.150Z,101051.63
2018-08-10T16:58:30.500Z,101056.10
2018-08-10T17:00:59.639Z,101059.06
2018-08-10T17:03:29.599Z,101067.84
2018-08-10T17:06:04.042Z,101065.85
2018-08-10T17:08:43.637Z,101069.77
2018-08-10T17:11:13.244Z,101072.09
2018-08-10T17:13:42.136Z,101059.44
2018-08-10T17:16:10.899Z,101065.08
2018-08-10T17:18:40.030Z,101061.41
2018-08-10T17:21:09.734Z,101063.44
2018-08-10T17:23:38.418Z,101069.41
2018-08-10T17:26:11.464Z,101056.09
2018-08-10T17:28:40.357Z,101052.73
2018-08-10T17:31:14.055Z,101057.87
2018-08-10T17:36:58.184Z,101060.03
2018-08-10T17:39:27.605Z,101054.91
2018-08-10T17:41:56.907Z,101056.85
2018-08-10T17:44:26.118Z,101057.50
2018-08-10T17:46:55.190Z,101050.95
2018-08-10T17:49:23.789Z,101049.75
2018-08-10T17:51:52.514Z,101047.26
2018-08-10T17:54:21.650Z,101054.02
2018-08-10T17:56:50.498Z,101065.57
2018-08-10T17:59:19.222Z,101060.47
2018-08-10T18:04:21.379Z,101064.64
2018-08-10T18:06:55.640Z,101064.81
2018-08-10T18:09:24.514Z,101072.22
2018-08-10T18:11:53.155Z,101066.79
2018-08-10T18:14:25.762Z,101063.02
2018-08-10T18:16:54.846Z,101066.12
2018-08-10T18:19:23.646Z,101075.06
2018-08-10T18:21:52.462Z,101073.06
2018-08-10T18:24:21.737Z,101077.00
2018-08-10T18:26:50.602Z,101080.70
2018-08-10T18:29:19.594Z,101081.99
2018-08-10T18:31:49.161Z,101080.98
2018-08-10T18:34:18.499Z,101082.56
2018-08-10T18:36:47.295Z,101087.48
2018-08-10T18:39:18.854Z,101085.36
2018-08-10T18:41:47.706Z,101084.78
2018-08-10T18:44:17.037Z,101090.66
2018-08-10T18:46:46.453Z,101084.16
2018-08-10T18:49:15.330Z,101091.02
2018-08-10T18:51:44.562Z,101095.89
2018-08-10T18:54:21.053Z,101099.33
2018-08-10T18:56:50.098Z,101100.09
2018-08-10T18:59:18.699Z,101098.34
2018-08-10T19:01:49.410Z,101095.13
2018-08-10T19:04:18.147Z,101108.63
2018-08-10T19:06:46.894Z,101115.90
2018-08-10T19:09:16.934Z,101113.50
2018-08-10T19:11:45.548Z,101108.77
2018-08-10T19:14:14.129Z,101117.84
2018-08-10T19:16:43.099Z,101127.69
2018-08-10T19:19:11.875Z,101122.56
2018-08-10T19:21:40.946Z,101129.77
2018-08-10T19:24:13.410Z,101127.22
2018-08-10T19:26:42.059Z,101119.67
2018-08-10T19:29:10.984Z,101123.45
2018-08-10T19:31:46.402Z,101123.81
2018-08-10T19:34:15.370Z,101128.72
2018-08-10T19:36:44.203Z,101132.34
2018-08-10T19:39:13.248Z,101127.87
2018-08-10T19:41:42.076Z,101136.66
2018-08-10T19:44:12.830Z,101133.35
2018-08-10T19:46:42.372Z,101131.45
2018-08-10T19:49:12.875Z,101133.16
2018-08-10T19:51:41.596Z,101133.78
2018-08-10T19:54:10.796Z,101136.96
2018-08-10T19:56:39.464Z,101139.27
2018-08-10T19:59:08.205Z,101140.77
2018-08-10T20:01:38.318Z,101140.86
2018-08-10T20:04:06.959Z,101144.20
2018-08-10T20:06:35.665Z,101144.89
2018-08-10T20:09:07.116Z,101143.58
2018-08-10T20:11:35.898Z,101138.37
2018-08-10T20:14:06.382Z,101134.63
2018-08-10T20:16:37.579Z,101133.53
2018-08-10T20:19:06.412Z,101134.12
2018-08-10T20:21:42.952Z,101139.03
2018-08-10T20:24:11.899Z,101134.31
2018-08-10T20:26:40.589Z,101135.22
2018-08-10T20:29:11.743Z,101140.14
2018-08-10T20:31:40.394Z,101140.59
2018-08-10T20:34:11.034Z,101141.28
2018-08-10T20:36:40.081Z,101138.23
2018-08-10T20:39:11.381Z,101139.92
2018-08-10T20:41:40.173Z,101135.97
2018-08-10T20:44:09.125Z,101134.61
2018-08-10T20:46:38.833Z,101139.92
2018-08-10T20:49:07.601Z,101136.45
2018-08-10T20:51:39.581Z,101133.69
2018-08-10T20:54:08.289Z,101131.44
2018-08-10T20:56:37.199Z,101135.85
2018-08-10T20:59:05.917Z,101132.34
2018-08-10T21:01:34.571Z,101132.42
2018-08-10T21:04:04.436Z,101131.87
2018-08-10T21:06:33.132Z,101132.94
2018-08-10T21:09:01.960Z,101136.11
2018-08-10T21:11:31.331Z,101135.37
2018-08-10T21:13:59.975Z,101133.76
2018-08-10T21:16:28.558Z,101131.27
2018-08-10T21:18:57.604Z,101126.88
2018-08-10T21:21:26.187Z,101126.06
2018-08-10T21:23:54.797Z,101129.17
2018-08-10T21:26:29.245Z,101124.51
2018-08-10T21:28:58.059Z,101119.63
2018-08-10T21:31:26.717Z,101118.30
2018-08-10T21:33:55.548Z,101118.35
2018-08-10T21:36:24.371Z,101129.02
2018-08-10T21:38:53.486Z,101122.03
2018-08-10T21:41:22.138Z,101132.48
2018-08-10T21:43:50.999Z,101133.55
2018-08-10T21:46:20.466Z,101129.80
2018-08-10T21:48:49.917Z,101137.56
2018-08-10T21:53:58.816Z,101130.01
2018-08-10T21:56:27.458Z,101132.07
2018-08-10T21:58:56.043Z,101136.44
2018-08-10T22:01:25.176Z,101137.61
2018-08-10T22:03:54.021Z,101143.42
2018-08-10T22:06:22.607Z,101145.47
2018-08-10T22:08:51.707Z,101138.62
2018-08-10T22:11:20.310Z,101143.19
2018-08-10T22:13:56.324Z,101141.65
2018-08-10T22:16:30.018Z,101151.46
2018-08-10T22:19:04.258Z,101141.09
2018-08-10T22:21:33.359Z,101145.02
2018-08-10T22:24:02.594Z,101143.96
2018-08-10T22:26:31.236Z,101151.56
2018-08-10T22:28:59.926Z,101147.33
2018-08-10T22:31:32.133Z,101147.78
2018-08-10T22:34:01.294Z,101142.20
2018-08-10T22:36:31.574Z,101144.98
2018-08-10T22:39:00.122Z,101149.26
2018-08-10T22:41:36.580Z,101151.09
2018-08-10T22:44:05.728Z,101152.35
2018-08-10T22:46:34.282Z,101156.48
2018-08-10T22:49:04.564Z,101148.38
2018-08-10T22:51:33.157Z,101150.27
2018-08-10T22:54:11.712Z,101154.80
2018-08-10T22:56:40.620Z,101148.62
2018-08-10T22:59:09.229Z,101146.72
2018-08-10T23:01:42.546Z,101152.31
2018-08-10T23:04:11.587Z,101158.34
2018-08-10T23:06:42.107Z,101154.33
2018-08-10T23:09:11.890Z,101149.79
2018-08-10T23:11:46.780Z,101149.56
2018-08-10T23:14:15.370Z,101155.28
2018-08-10T23:16:48.683Z,101154.50
2018-08-10T23:19:17.814Z,101152.45
2018-08-10T23:21:46.627Z,101158.73
2018-08-10T23:24:15.266Z,101159.62
2018-08-10T23:26:47.708Z,101163.09
2018-08-10T23:29:16.296Z,101163.03
2018-08-10T23:31:50.599Z,101155.92
2018-08-10T23:34:19.415Z,101154.27
2018-08-10T23:37:18.554Z,101158.28
2018-08-10T23:39:50.593Z,101154.61
2018-08-10T23:42:19.431Z,101157.67
2018-08-10T23:44:48.037Z,101154.50
2018-08-10T23:47:16.924Z,101153.33
2018-08-10T23:49:45.505Z,101156.71
2018-08-10T23:52:14.083Z,101158.65
2018-08-10T23:54:43.051Z,101154.35
2018-08-10T23:57:11.659Z,101153.02
2018-08-10T23:59:40.263Z,101142.29
